Pachuca, Ingeniero Juan Guillermo Villasana Airport (MMPC)

NameIngeniero Juan Guillermo Villasana Airport
CityPachuca
CountryMexico
ICAOMMPC
IATA
Altitude2316 m
CoordinatesGoogle Map
Live Air TrafficLiveATC.net
METARMMPC 241600Z 08010KT 7000 SCT016 SCT300 30/25 Q1011 HZ
2018-09-24 16:00:00 Wind: East-Northeast (80°) 5.14 m/s - Visibility: 7000 m - Weather: Haze - Temperature: 30 °C - Dew point: 25 °C - Humidity: 74.6% - Pressure: 1011 hPa

Sorry, no flights used the airport in this database.